Time;durP1;ratioP1;P1;durP2;ratioP2;P2;SDS_P1;SDS_P2;PMS_P1;PMS_P2;Temp;Humidity;BMP_temperature;BMP_pressure;BME280_temperature;BME280_humidity;BME280_pressure;Samples;Min_cycle;Max_cycle;Signal;HPM_P1;HPM_P2
2024/02/20 00:01:39;;;;;;;13.48;8.20;;;;;;;;;;5025712;28;20025;-53
2024/02/20 00:04:08;;;;;;;14.55;8.85;;;;;;;;;;5026822;28;20126;-56
2024/02/20 00:06:35;;;;;;;13.65;8.80;;;;;;;;;;5026830;28;20052;-53
2024/02/20 00:09:01;;;;;;;13.60;8.60;;;;;;;;;;5026717;28;20032;-57
2024/02/20 00:11:28;;;;;;;13.70;8.75;;;;;;;;;;5028780;28;20260;-58
2024/02/20 00:13:55;;;;;;;14.77;9.00;;;;;;;;;;5030529;28;20072;-56
2024/02/20 00:16:21;;;;;;;12.98;7.50;;;;;;;;;;5030022;28;20388;-57
2024/02/20 00:18:48;;;;;;;13.35;8.18;;;;;;;;;;5029454;28;20500;-58
2024/02/20 00:21:14;;;;;;;14.20;9.00;;;;;;;;;;5029325;28;20496;-58
2024/02/20 00:23:40;;;;;;;13.30;8.05;;;;;;;;;;5029465;28;20403;-57
2024/02/20 00:26:06;;;;;;;16.75;8.25;;;;;;;;;;5029519;28;20025;-58
2024/02/20 00:28:32;;;;;;;13.35;7.90;;;;;;;;;;5044791;28;20044;-58
2024/02/20 00:30:58;;;;;;;22.20;9.98;;;;;;;;;;5029705;28;20032;-59
2024/02/20 00:33:24;;;;;;;13.27;7.80;;;;;;;;;;5030149;28;20075;-57
2024/02/20 00:35:50;;;;;;;13.10;7.70;;;;;;;;;;5030040;28;20022;-56
2024/02/20 00:38:16;;;;;;;13.35;7.80;;;;;;;;;;5031823;28;20025;-56
2024/02/20 00:40:42;;;;;;;13.23;7.80;;;;;;;;;;5034251;28;20381;-57
2024/02/20 00:43:08;;;;;;;13.18;7.70;;;;;;;;;;5028446;28;20021;-59
2024/02/20 00:45:34;;;;;;;13.30;7.90;;;;;;;;;;5033567;28;20021;-55
2024/02/20 00:48:00;;;;;;;13.90;9.52;;;;;;;;;;5033887;28;20045;-55
2024/02/20 00:50:28;;;;;;;13.30;7.80;;;;;;;;;;5033896;28;20553;-57
2024/02/20 00:52:54;;;;;;;13.20;7.95;;;;;;;;;;5033569;28;20029;-56
2024/02/20 00:55:20;;;;;;;13.00;7.50;;;;;;;;;;5032441;28;20033;-58
2024/02/20 00:57:46;;;;;;;13.18;7.80;;;;;;;;;;5034042;28;20025;-53
2024/02/20 01:00:13;;;;;;;13.38;7.82;;;;;;;;;;5033636;28;20022;-55
2024/02/20 01:02:40;;;;;;;15.10;8.13;;;;;;;;;;5033398;28;20095;-57
2024/02/20 01:05:06;;;;;;;13.48;8.38;;;;;;;;;;5033560;28;20032;-54
2024/02/20 01:07:32;;;;;;;13.43;8.07;;;;;;;;;;5033092;28;20036;-57
2024/02/20 01:09:58;;;;;;;15.25;10.10;;;;;;;;;;5033515;28;20108;-57
2024/02/20 01:12:24;;;;;;;13.52;8.23;;;;;;;;;;5031785;28;20072;-57
2024/02/20 01:14:50;;;;;;;13.20;7.95;;;;;;;;;;5033327;28;20041;-55
2024/02/20 01:17:16;;;;;;;13.80;8.95;;;;;;;;;;5033344;28;20029;-53
2024/02/20 01:19:42;;;;;;;13.32;8.00;;;;;;;;;;5033247;28;20124;-57
2024/02/20 01:22:08;;;;;;;13.27;7.90;;;;;;;;;;5032995;28;20487;-57
2024/02/20 01:24:34;;;;;;;20.75;8.60;;;;;;;;;;5033071;28;20029;-56
2024/02/20 01:27:00;;;;;;;13.32;8.10;;;;;;;;;;5033095;28;20105;-56
2024/02/20 01:29:26;;;;;;;18.33;10.30;;;;;;;;;;5048402;28;20395;-56
2024/02/20 01:31:53;;;;;;;13.90;7.88;;;;;;;;;;5032775;28;20108;-56
2024/02/20 01:34:19;;;;;;;13.25;7.75;;;;;;;;;;5048247;28;20025;-57
2024/02/20 01:36:45;;;;;;;12.77;7.43;;;;;;;;;;5033039;28;20021;-54
2024/02/20 01:39:11;;;;;;;13.48;8.30;;;;;;;;;;5032895;28;20030;-58
2024/02/20 01:41:37;;;;;;;13.40;8.10;;;;;;;;;;5033047;28;20057;-57
2024/02/20 01:44:03;;;;;;;21.98;8.35;;;;;;;;;;5032906;28;20068;-53
2024/02/20 01:46:29;;;;;;;13.30;7.82;;;;;;;;;;5032772;28;20041;-57
2024/02/20 01:48:55;;;;;;;13.27;7.78;;;;;;;;;;5032465;28;20040;-55
2024/02/20 01:51:23;;;;;;;13.23;8.00;;;;;;;;;;5032235;28;20044;-56
2024/02/20 01:53:50;;;;;;;13.20;7.63;;;;;;;;;;5032429;28;20046;-54
2024/02/20 01:56:18;;;;;;;13.10;7.63;;;;;;;;;;5032998;28;20021;-53
2024/02/20 01:58:44;;;;;;;13.00;7.60;;;;;;;;;;5032496;28;20622;-54
2024/02/20 02:01:10;;;;;;;13.70;8.80;;;;;;;;;;5032411;28;20025;-56
2024/02/20 02:03:36;;;;;;;13.00;7.75;;;;;;;;;;5032445;28;20040;-55
2024/02/20 02:06:03;;;;;;;13.20;7.70;;;;;;;;;;5032404;28;20113;-52
2024/02/20 02:08:29;;;;;;;12.50;7.20;;;;;;;;;;5032259;28;20036;-56
2024/02/20 02:10:55;;;;;;;12.30;7.10;;;;;;;;;;5032552;28;20030;-55
2024/02/20 02:13:21;;;;;;;12.43;7.32;;;;;;;;;;5032140;28;20516;-58
2024/02/20 02:15:47;;;;;;;12.82;7.40;;;;;;;;;;5032058;28;20103;-54
2024/02/20 02:18:13;;;;;;;12.15;7.10;;;;;;;;;;5032225;28;20033;-55
2024/02/20 02:20:39;;;;;;;12.43;7.22;;;;;;;;;;5032123;28;20041;-58
2024/02/20 02:23:05;;;;;;;11.90;7.00;;;;;;;;;;5047209;28;20095;-56
2024/02/20 02:25:31;;;;;;;12.00;7.00;;;;;;;;;;5047390;28;20100;-56
2024/02/20 02:27:56;;;;;;;11.55;6.75;;;;;;;;;;5031779;28;20029;-53
2024/02/20 02:30:23;;;;;;;19.08;8.45;;;;;;;;;;5031977;28;20032;-57
2024/02/20 02:32:50;;;;;;;11.43;6.70;;;;;;;;;;5031670;28;20025;-55
2024/02/20 02:35:18;;;;;;;11.38;6.63;;;;;;;;;;5047107;28;20065;-55
2024/02/20 02:37:44;;;;;;;11.55;6.95;;;;;;;;;;5031735;28;20029;-56
2024/02/20 02:40:11;;;;;;;10.95;6.40;;;;;;;;;;5031732;28;20131;-58
2024/02/20 02:42:37;;;;;;;11.00;6.40;;;;;;;;;;5031549;28;20033;-57
2024/02/20 02:45:04;;;;;;;10.52;6.20;;;;;;;;;;5031523;28;20041;-56
2024/02/20 02:47:30;;;;;;;10.20;6.00;;;;;;;;;;5031747;28;20076;-57
2024/02/20 02:49:56;;;;;;;10.80;6.40;;;;;;;;;;5031732;28;20025;-57
2024/02/20 02:52:22;;;;;;;10.10;6.00;;;;;;;;;;5031437;28;20471;-57
2024/02/20 02:54:48;;;;;;;9.85;5.80;;;;;;;;;;5031625;28;20436;-52
2024/02/20 02:57:15;;;;;;;11.25;7.60;;;;;;;;;;5031731;28;20472;-58
2024/02/20 02:59:41;;;;;;;10.13;5.95;;;;;;;;;;5031633;28;20060;-53
2024/02/20 03:02:10;;;;;;;10.13;6.10;;;;;;;;;;5031304;28;20476;-56
2024/02/20 03:04:36;;;;;;;9.90;5.80;;;;;;;;;;5031518;28;20021;-54
2024/02/20 03:07:02;;;;;;;11.38;8.75;;;;;;;;;;5031657;28;20170;-55
2024/02/20 03:09:28;;;;;;;10.20;6.00;;;;;;;;;;5031582;28;20476;-58
2024/02/20 03:11:54;;;;;;;9.68;5.70;;;;;;;;;;5031321;28;20031;-58
2024/02/20 03:14:21;;;;;;;10.13;6.00;;;;;;;;;;5031151;28;20357;-56
2024/02/20 03:16:47;;;;;;;10.20;6.10;;;;;;;;;;5031196;28;20029;-59
2024/02/20 03:19:14;;;;;;;10.30;6.05;;;;;;;;;;5031141;28;20097;-56
2024/02/20 03:21:41;;;;;;;10.30;6.10;;;;;;;;;;5030294;28;20022;-58
2024/02/20 03:24:09;;;;;;;9.77;5.78;;;;;;;;;;5029388;28;20026;-56
2024/02/20 03:26:35;;;;;;;10.27;6.00;;;;;;;;;;5027931;28;20020;-55
2024/02/20 03:29:01;;;;;;;10.00;5.90;;;;;;;;;;5041836;28;20037;-58
2024/02/20 03:31:27;;;;;;;9.50;5.60;;;;;;;;;;5028719;28;20026;-57
2024/02/20 03:33:53;;;;;;;9.73;5.72;;;;;;;;;;5019126;28;20665;-57
2024/02/20 03:36:19;;;;;;;10.50;6.35;;;;;;;;;;5011128;28;20033;-55
2024/02/20 03:38:45;;;;;;;9.70;5.70;;;;;;;;;;5011081;28;20034;-59
2024/02/20 03:41:11;;;;;;;10.05;5.90;;;;;;;;;;5010934;28;20502;-57
2024/02/20 03:43:37;;;;;;;10.20;6.10;;;;;;;;;;5010855;28;20108;-56
2024/02/20 03:46:04;;;;;;;9.82;5.80;;;;;;;;;;5010848;28;20095;-58
2024/02/20 03:48:30;;;;;;;10.27;6.05;;;;;;;;;;5026003;28;20025;-59
2024/02/20 03:50:56;;;;;;;11.00;6.50;;;;;;;;;;5010770;28;20176;-59
2024/02/20 03:53:23;;;;;;;10.45;6.15;;;;;;;;;;5010473;28;20100;-59
2024/02/20 03:55:49;;;;;;;10.68;6.28;;;;;;;;;;5025965;28;20076;-59
2024/02/20 03:58:15;;;;;;;11.10;6.50;;;;;;;;;;5025866;28;20025;-57
2024/02/20 04:00:41;;;;;;;11.40;6.70;;;;;;;;;;5010765;28;20033;-56
2024/02/20 04:03:07;;;;;;;11.27;6.60;;;;;;;;;;5010570;28;20025;-59
2024/02/20 04:05:33;;;;;;;11.35;6.70;;;;;;;;;;5010763;28;20022;-57
2024/02/20 04:07:59;;;;;;;11.82;6.90;;;;;;;;;;5010603;28;20396;-58
2024/02/20 04:10:25;;;;;;;11.50;6.70;;;;;;;;;;5010626;28;20036;-59
2024/02/20 04:12:51;;;;;;;11.77;6.82;;;;;;;;;;5010107;28;20108;-59
2024/02/20 04:15:17;;;;;;;12.65;7.90;;;;;;;;;;5010576;28;20126;-57
2024/02/20 04:17:43;;;;;;;11.48;6.72;;;;;;;;;;5010443;28;20026;-55
2024/02/20 04:20:11;;;;;;;11.25;6.60;;;;;;;;;;5010886;28;20068;-60
2024/02/20 04:22:37;;;;;;;11.73;7.20;;;;;;;;;;5008966;28;20034;-55
2024/02/20 04:25:05;;;;;;;11.00;6.50;;;;;;;;;;5010344;28;20261;-59
2024/02/20 04:27:30;;;;;;;11.15;6.50;;;;;;;;;;5010341;28;20030;-58
2024/02/20 04:29:56;;;;;;;11.40;6.80;;;;;;;;;;5009263;28;20029;-58
2024/02/20 04:32:23;;;;;;;11.13;6.50;;;;;;;;;;5010068;28;20100;-58
2024/02/20 04:34:49;;;;;;;11.20;6.50;;;;;;;;;;5010097;28;20026;-57
2024/02/20 04:37:16;;;;;;;11.68;6.80;;;;;;;;;;5010012;28;20038;-58
2024/02/20 04:39:44;;;;;;;11.45;6.78;;;;;;;;;;5009776;28;20105;-58
2024/02/20 04:42:10;;;;;;;10.90;6.35;;;;;;;;;;5009853;28;20033;-58
2024/02/20 04:44:39;;;;;;;10.73;6.30;;;;;;;;;;5009902;28;20514;-59
2024/02/20 04:47:06;;;;;;;15.02;7.03;;;;;;;;;;5009737;28;20030;-58
2024/02/20 04:49:32;;;;;;;19.17;7.90;;;;;;;;;;5009981;28;20026;-58
2024/02/20 04:51:58;;;;;;;11.38;6.50;;;;;;;;;;5010379;28;20037;-55
2024/02/20 04:54:24;;;;;;;10.77;6.30;;;;;;;;;;5009755;28;20083;-58
2024/02/20 04:56:50;;;;;;;10.40;6.10;;;;;;;;;;5010046;28;20022;-57
2024/02/20 04:59:16;;;;;;;10.50;6.25;;;;;;;;;;5009961;28;20021;-55
2024/02/20 05:01:42;;;;;;;10.98;6.65;;;;;;;;;;5010172;28;20022;-58
2024/02/20 05:04:10;;;;;;;10.45;6.20;;;;;;;;;;5009930;28;20663;-58
2024/02/20 05:06:36;;;;;;;10.70;6.30;;;;;;;;;;5009814;28;20030;-59
2024/02/20 05:09:02;;;;;;;11.85;7.40;;;;;;;;;;5009846;28;20041;-56
2024/02/20 05:11:28;;;;;;;10.70;6.30;;;;;;;;;;5009856;28;20018;-57
2024/02/20 05:13:54;;;;;;;23.33;7.85;;;;;;;;;;5008328;28;20026;-57
2024/02/20 05:16:20;;;;;;;13.43;6.90;;;;;;;;;;5009775;28;20054;-58
2024/02/20 05:18:46;;;;;;;17.27;7.13;;;;;;;;;;5010039;28;20034;-59
2024/02/20 05:21:12;;;;;;;9.48;5.63;;;;;;;;;;5009870;28;20037;-58
2024/02/20 05:23:38;;;;;;;10.02;6.43;;;;;;;;;;5009913;28;20025;-58
2024/02/20 05:26:04;;;;;;;9.52;5.63;;;;;;;;;;5012558;28;20381;-57
2024/02/20 05:28:30;;;;;;;10.30;6.10;;;;;;;;;;5013546;28;20061;-54
2024/02/20 05:30:56;;;;;;;11.65;6.40;;;;;;;;;;5013409;28;20022;-55
2024/02/20 05:33:23;;;;;;;10.40;5.80;;;;;;;;;;5026286;28;20048;-55
2024/02/20 05:35:49;;;;;;;9.20;5.40;;;;;;;;;;5032843;28;20336;-55
2024/02/20 05:38:16;;;;;;;12.77;6.10;;;;;;;;;;5032875;28;20167;-58
2024/02/20 05:40:42;;;;;;;9.88;5.80;;;;;;;;;;5032868;28;20026;-58
2024/02/20 05:43:08;;;;;;;10.43;6.20;;;;;;;;;;5031244;28;20542;-58
2024/02/20 05:45:34;;;;;;;9.70;5.70;;;;;;;;;;5032408;28;20033;-56
2024/02/20 05:48:03;;;;;;;11.32;7.03;;;;;;;;;;5031237;28;20122;-58
2024/02/20 05:50:31;;;;;;;10.63;6.20;;;;;;;;;;5031349;28;20021;-59
2024/02/20 05:52:57;;;;;;;12.07;7.17;;;;;;;;;;5032383;28;20030;-57
2024/02/20 05:55:23;;;;;;;9.98;5.88;;;;;;;;;;5032510;28;20017;-57
2024/02/20 05:57:49;;;;;;;10.00;5.93;;;;;;;;;;5032381;28;20029;-56
2024/02/20 06:00:15;;;;;;;9.93;6.00;;;;;;;;;;5032656;28;20095;-55
2024/02/20 06:02:41;;;;;;;10.02;5.97;;;;;;;;;;5032260;28;20044;-57
2024/02/20 06:05:08;;;;;;;9.50;5.60;;;;;;;;;;5032095;28;20381;-56
2024/02/20 06:07:34;;;;;;;9.75;5.80;;;;;;;;;;5032095;28;20391;-58
2024/02/20 06:10:00;;;;;;;9.80;5.78;;;;;;;;;;5031631;28;20025;-58
2024/02/20 06:12:27;;;;;;;9.75;5.75;;;;;;;;;;5058109;22;20025;-57
2024/02/20 06:14:53;;;;;;;10.50;6.45;;;;;;;;;;5052092;28;20068;-59
2024/02/20 06:17:19;;;;;;;10.57;6.45;;;;;;;;;;5052219;28;20045;-55
2024/02/20 06:19:45;;;;;;;9.43;5.57;;;;;;;;;;5050752;28;20029;-55
2024/02/20 06:22:11;;;;;;;9.80;5.80;;;;;;;;;;5051500;28;20127;-56
2024/02/20 06:24:37;;;;;;;10.20;6.00;;;;;;;;;;5051872;28;20364;-59
2024/02/20 06:27:06;;;;;;;10.63;6.03;;;;;;;;;;5052056;28;20021;-58
2024/02/20 06:29:34;;;;;;;9.90;5.80;;;;;;;;;;5050486;28;20025;-60
2024/02/20 06:32:00;;;;;;;23.13;7.75;;;;;;;;;;5051882;28;20021;-56
2024/02/20 06:34:26;;;;;;;11.90;9.32;;;;;;;;;;5051992;28;20029;-56
2024/02/20 06:36:52;;;;;;;9.63;5.70;;;;;;;;;;5051128;28;20017;-58
2024/02/20 06:39:18;;;;;;;9.30;5.50;;;;;;;;;;5051423;28;20336;-58
2024/02/20 06:41:44;;;;;;;9.50;5.60;;;;;;;;;;5049703;28;20027;-59
2024/02/20 06:44:10;;;;;;;9.30;5.50;;;;;;;;;;5052457;28;20383;-56
2024/02/20 06:46:39;;;;;;;9.75;5.70;;;;;;;;;;5052836;28;20364;-58
2024/02/20 06:49:05;;;;;;;9.40;5.60;;;;;;;;;;5050341;28;20288;-56
2024/02/20 06:51:31;;;;;;;9.80;5.90;;;;;;;;;;5049697;28;20033;-56
2024/02/20 06:53:58;;;;;;;9.20;5.40;;;;;;;;;;5050643;28;20433;-55
2024/02/20 06:56:24;;;;;;;9.20;5.47;;;;;;;;;;5050941;28;20072;-59
2024/02/20 06:58:50;;;;;;;9.50;5.60;;;;;;;;;;5051282;28;20032;-59
2024/02/20 07:01:16;;;;;;;9.45;5.57;;;;;;;;;;5049599;28;20021;-59
2024/02/20 07:03:43;;;;;;;12.82;7.28;;;;;;;;;;5049153;28;20029;-59
2024/02/20 07:06:09;;;;;;;12.15;6.63;;;;;;;;;;5051073;28;20089;-57
2024/02/20 07:08:35;;;;;;;9.65;5.63;;;;;;;;;;5050946;28;20414;-58
2024/02/20 07:11:01;;;;;;;8.93;5.25;;;;;;;;;;5050680;28;20025;-53
2024/02/20 07:13:27;;;;;;;9.27;5.50;;;;;;;;;;5048657;28;20436;-57
2024/02/20 07:15:54;;;;;;;9.73;5.70;;;;;;;;;;5050704;28;20028;-56
2024/02/20 07:18:20;;;;;;;9.07;5.40;;;;;;;;;;5050378;28;20094;-53
2024/02/20 07:20:45;;;;;;;9.30;5.47;;;;;;;;;;5050328;28;20099;-57
2024/02/20 07:23:11;;;;;;;9.60;5.60;;;;;;;;;;5050203;28;20376;-60
2024/02/20 07:25:37;;;;;;;9.80;5.70;;;;;;;;;;5050291;28;20032;-59
2024/02/20 07:28:04;;;;;;;9.43;5.60;;;;;;;;;;5050320;28;20033;-56
2024/02/20 07:30:30;;;;;;;9.55;5.60;;;;;;;;;;5050486;28;20329;-58
2024/02/20 07:32:57;;;;;;;9.52;5.68;;;;;;;;;;5049922;28;20025;-52
2024/02/20 07:35:23;;;;;;;14.77;7.65;;;;;;;;;;5049049;28;20020;-58
2024/02/20 07:37:50;;;;;;;9.43;5.60;;;;;;;;;;5050252;28;20032;-57
2024/02/20 07:40:16;;;;;;;9.60;5.70;;;;;;;;;;5050050;28;20029;-57
2024/02/20 07:42:42;;;;;;;9.80;5.80;;;;;;;;;;5050073;28;20104;-53
2024/02/20 07:45:08;;;;;;;10.18;6.22;;;;;;;;;;5049071;28;20136;-56
2024/02/20 07:47:37;;;;;;;10.00;6.38;;;;;;;;;;5049622;28;20145;-54
2024/02/20 07:50:04;;;;;;;10.05;5.90;;;;;;;;;;5049123;28;20028;-55
2024/02/20 07:52:30;;;;;;;10.23;6.05;;;;;;;;;;5049800;28;20025;-58
2024/02/20 07:54:56;;;;;;;10.10;5.93;;;;;;;;;;5047308;28;20071;-58
2024/02/20 07:57:22;;;;;;;9.63;5.70;;;;;;;;;;5041521;28;20029;-56
2024/02/20 07:59:48;;;;;;;10.23;6.03;;;;;;;;;;5041478;28;20476;-55
2024/02/20 08:02:14;;;;;;;10.43;6.10;;;;;;;;;;5029704;28;20029;-60
2024/02/20 08:04:41;;;;;;;10.10;5.90;;;;;;;;;;5040298;28;20032;-57
2024/02/20 08:07:07;;;;;;;11.80;7.78;;;;;;;;;;5048434;28;20025;-58
2024/02/20 08:09:33;;;;;;;10.05;5.90;;;;;;;;;;5049587;28;20086;-59
2024/02/20 08:11:59;;;;;;;10.30;6.10;;;;;;;;;;5046329;28;20021;-56
2024/02/20 08:14:25;;;;;;;10.00;5.90;;;;;;;;;;5028269;28;20407;-52
2024/02/20 08:16:51;;;;;;;10.60;6.30;;;;;;;;;;5028579;28;20483;-56
2024/02/20 08:19:17;;;;;;;10.70;6.40;;;;;;;;;;5029885;28;20475;-56
2024/02/20 08:21:44;;;;;;;10.52;6.30;;;;;;;;;;5028631;28;20045;-56
2024/02/20 08:24:10;;;;;;;10.68;6.25;;;;;;;;;;5040277;28;20037;-57
2024/02/20 08:26:36;;;;;;;12.82;7.18;;;;;;;;;;5049635;28;20060;-58
2024/02/20 08:29:02;;;;;;;12.27;7.47;;;;;;;;;;5049513;28;20036;-56
2024/02/20 08:31:28;;;;;;;26.42;8.18;;;;;;;;;;5049418;28;20071;-56
2024/02/20 08:33:54;;;;;;;10.35;6.10;;;;;;;;;;5048032;28;20052;-59
2024/02/20 08:36:20;;;;;;;11.02;7.47;;;;;;;;;;5048316;28;20049;-57
2024/02/20 08:38:48;;;;;;;10.23;6.05;;;;;;;;;;5047941;28;20141;-58
2024/02/20 08:41:14;;;;;;;10.20;6.00;;;;;;;;;;5049499;28;20061;-59
2024/02/20 08:43:40;;;;;;;11.05;6.47;;;;;;;;;;5047966;28;20078;-55
2024/02/20 08:46:06;;;;;;;11.32;6.65;;;;;;;;;;5048084;28;20407;-55
2024/02/20 08:48:32;;;;;;;11.48;6.50;;;;;;;;;;5047902;28;20036;-55
2024/02/20 08:50:58;;;;;;;13.55;8.57;;;;;;;;;;5048863;28;20746;-52
2024/02/20 08:53:25;;;;;;;11.63;6.88;;;;;;;;;;5047470;28;20032;-57
2024/02/20 08:55:51;;;;;;;10.80;6.53;;;;;;;;;;5049069;28;20113;-53
2024/02/20 08:58:17;;;;;;;10.90;6.45;;;;;;;;;;5049468;28;20043;-58
2024/02/20 09:00:45;;;;;;;10.77;6.30;;;;;;;;;;5053542;28;20090;-57
2024/02/20 09:03:12;;;;;;;11.32;6.70;;;;;;;;;;5052959;28;20084;-57
2024/02/20 09:05:38;;;;;;;13.35;6.97;;;;;;;;;;5051936;28;20506;-58
2024/02/20 09:08:04;;;;;;;17.42;8.77;;;;;;;;;;5052992;28;20117;-55
2024/02/20 09:10:30;;;;;;;25.17;13.15;;;;;;;;;;5052017;28;20335;-58
2024/02/20 09:12:56;;;;;;;18.35;11.88;;;;;;;;;;5051234;28;20039;-55
2024/02/20 09:15:22;;;;;;;11.32;6.60;;;;;;;;;;5051614;28;20394;-56
2024/02/20 09:17:48;;;;;;;15.80;8.25;;;;;;;;;;5052831;28;20029;-58
2024/02/20 09:20:14;;;;;;;12.48;7.78;;;;;;;;;;5052847;28;20100;-55
2024/02/20 09:22:40;;;;;;;11.20;6.68;;;;;;;;;;5051279;28;20047;-58
2024/02/20 09:25:07;;;;;;;12.73;7.40;;;;;;;;;;5052826;28;20029;-57
2024/02/20 09:27:33;;;;;;;11.80;6.90;;;;;;;;;;5051610;28;20025;-58
2024/02/20 09:29:59;;;;;;;14.25;8.23;;;;;;;;;;5046191;28;20132;-57
2024/02/20 09:32:25;;;;;;;11.18;6.55;;;;;;;;;;5035965;28;20028;-56
2024/02/20 09:34:52;;;;;;;14.82;9.43;;;;;;;;;;5055063;28;20021;-57
2024/02/20 09:37:18;;;;;;;11.70;6.80;;;;;;;;;;5038431;28;20407;-54
2024/02/20 09:39:44;;;;;;;11.30;6.60;;;;;;;;;;5034076;28;20053;-53
2024/02/20 09:42:11;;;;;;;13.25;9.05;;;;;;;;;;5034967;28;20108;-54
2024/02/20 09:44:39;;;;;;;14.43;8.57;;;;;;;;;;5034107;28;20052;-60
2024/02/20 09:47:05;;;;;;;16.30;9.87;;;;;;;;;;5032382;28;20028;-61
2024/02/20 09:49:33;;;;;;;10.75;6.30;;;;;;;;;;5031133;28;20052;-59
2024/02/20 09:52:00;;;;;;;18.43;9.47;;;;;;;;;;5032494;28;20027;-55
2024/02/20 09:54:28;;;;;;;15.32;7.90;;;;;;;;;;5032712;28;20030;-59
2024/02/20 09:56:55;;;;;;;12.35;7.20;;;;;;;;;;5046271;28;20403;-60
2024/02/20 09:59:21;;;;;;;13.95;8.75;;;;;;;;;;5052423;28;20028;-64
2024/02/20 10:01:48;;;;;;;11.18;6.53;;;;;;;;;;5051845;28;20108;-58
2024/02/20 10:04:14;;;;;;;11.13;6.57;;;;;;;;;;5053538;28;20108;-59
2024/02/20 10:06:41;;;;;;;11.23;6.55;;;;;;;;;;5052272;28;20029;-57
2024/02/20 10:09:08;;;;;;;15.40;10.13;;;;;;;;;;5051005;28;20040;-58
2024/02/20 10:11:37;;;;;;;20.20;9.43;;;;;;;;;;5051198;28;20017;-59
2024/02/20 10:14:03;;;;;;;12.15;7.20;;;;;;;;;;5050372;28;20056;-59
2024/02/20 10:16:29;;;;;;;11.55;6.80;;;;;;;;;;5051937;28;20060;-61
2024/02/20 10:18:59;;;;;;;12.68;7.35;;;;;;;;;;5050768;28;20033;-60
2024/02/20 10:21:26;;;;;;;14.10;8.75;;;;;;;;;;5051696;28;20114;-60
2024/02/20 10:24:01;;;;;;;12.73;7.50;;;;;;;;;;5051618;28;20029;-58
2024/02/20 10:26:30;;;;;;;13.80;9.65;;;;;;;;;;5051656;28;20111;-59
2024/02/20 10:28:57;;;;;;;13.90;8.77;;;;;;;;;;5051795;28;20063;-61
2024/02/20 10:31:25;;;;;;;17.75;8.70;;;;;;;;;;5051914;28;20021;-56
2024/02/20 10:33:51;;;;;;;12.85;8.38;;;;;;;;;;5051903;28;20128;-62
2024/02/20 10:36:21;;;;;;;17.60;9.57;;;;;;;;;;5051054;28;20031;-57
2024/02/20 10:38:47;;;;;;;13.75;8.45;;;;;;;;;;5051631;28;20025;-60
2024/02/20 10:41:15;;;;;;;11.40;6.70;;;;;;;;;;5051384;28;20025;-58
2024/02/20 10:43:44;;;;;;;11.95;6.97;;;;;;;;;;5051030;28;20025;-59
2024/02/20 10:46:11;;;;;;;19.50;10.93;;;;;;;;;;5049817;28;20533;-59
2024/02/20 10:48:37;;;;;;;12.45;7.80;;;;;;;;;;5051223;28;20029;-60
2024/02/20 10:51:04;;;;;;;12.80;8.00;;;;;;;;;;5051248;28;20039;-60
2024/02/20 10:53:31;;;;;;;12.00;8.23;;;;;;;;;;5050896;28;20037;-60
2024/02/20 10:56:01;;;;;;;13.75;8.35;;;;;;;;;;5051013;28;20036;-60
2024/02/20 10:58:28;;;;;;;13.52;8.60;;;;;;;;;;5050868;28;20657;-59
2024/02/20 11:00:54;;;;;;;13.57;8.75;;;;;;;;;;5051156;28;20392;-60
2024/02/20 11:03:20;;;;;;;12.18;7.15;;;;;;;;;;5051274;28;20490;-62
2024/02/20 11:05:51;;;;;;;11.80;7.05;;;;;;;;;;5050871;28;20029;-58
2024/02/20 11:08:24;;;;;;;35.42;10.88;;;;;;;;;;5050681;28;20025;-56
2024/02/20 11:10:50;;;;;;;11.00;6.40;;;;;;;;;;5050758;28;20075;-60
2024/02/20 11:13:27;;;;;;;11.48;6.75;;;;;;;;;;5048804;28;20033;-60
2024/02/20 11:15:54;;;;;;;11.55;6.80;;;;;;;;;;5051175;28;20052;-60
2024/02/20 11:18:24;;;;;;;20.98;9.95;;;;;;;;;;5049642;28;20075;-59
2024/02/20 11:21:00;;;;;;;13.25;8.15;;;;;;;;;;5050848;28;20561;-60
2024/02/20 11:23:30;;;;;;;12.18;7.80;;;;;;;;;;5050095;28;20021;-60
2024/02/20 11:26:06;;;;;;;11.82;7.55;;;;;;;;;;5049132;28;20091;-60
2024/02/20 11:28:34;;;;;;;11.75;7.20;;;;;;;;;;5050551;28;20024;-60
2024/02/20 11:31:04;;;;;;;13.18;7.97;;;;;;;;;;5047833;28;20483;-60
2024/02/20 11:33:31;;;;;;;15.45;8.70;;;;;;;;;;5048844;28;20037;-59
2024/02/20 11:35:57;;;;;;;11.50;6.65;;;;;;;;;;5050418;28;20028;-53
2024/02/20 11:38:23;;;;;;;11.02;6.43;;;;;;;;;;5050340;28;20491;-58
2024/02/20 11:40:49;;;;;;;12.77;7.57;;;;;;;;;;5049100;28;20037;-57
2024/02/20 11:43:17;;;;;;;13.93;8.38;;;;;;;;;;5050080;28;20075;-59
2024/02/20 11:45:43;;;;;;;11.82;6.80;;;;;;;;;;5050260;28;20025;-57
2024/02/20 11:48:10;;;;;;;11.57;6.80;;;;;;;;;;5049037;28;20618;-54
2024/02/20 11:50:40;;;;;;;15.23;6.63;;;;;;;;;;5050730;28;20021;-59
2024/02/20 11:53:07;;;;;;;19.20;10.60;;;;;;;;;;5049860;28;20032;-57
2024/02/20 11:55:33;;;;;;;12.60;7.13;;;;;;;;;;5049237;28;20048;-58
2024/02/20 11:58:06;;;;;;;16.02;9.63;;;;;;;;;;5050002;28;20032;-59
2024/02/20 12:00:33;;;;;;;12.65;7.70;;;;;;;;;;5044003;28;20128;-59
2024/02/20 12:03:00;;;;;;;10.70;6.35;;;;;;;;;;5039425;28;20030;-60
2024/02/20 12:05:27;;;;;;;16.30;7.25;;;;;;;;;;5029696;28;20036;-59
2024/02/20 12:07:56;;;;;;;16.15;9.48;;;;;;;;;;5029657;28;20032;-59
2024/02/20 12:10:25;;;;;;;11.07;6.60;;;;;;;;;;5028241;28;20022;-58
2024/02/20 12:12:51;;;;;;;29.75;8.60;;;;;;;;;;5070197;22;20076;-57
2024/02/20 12:15:17;;;;;;;16.55;9.25;;;;;;;;;;5029437;28;20039;-54
2024/02/20 12:17:46;;;;;;;10.70;6.63;;;;;;;;;;5028705;28;20498;-55
2024/02/20 12:20:13;;;;;;;12.38;8.77;;;;;;;;;;5029967;28;20029;-58
2024/02/20 12:22:41;;;;;;;11.00;6.50;;;;;;;;;;5029477;28;20108;-55
2024/02/20 12:25:11;;;;;;;11.90;6.90;;;;;;;;;;5030028;28;20036;-55
2024/02/20 12:27:37;;;;;;;11.55;6.75;;;;;;;;;;5049688;28;20045;-57
2024/02/20 12:30:04;;;;;;;13.07;7.55;;;;;;;;;;5049772;28;20075;-57
2024/02/20 12:32:30;;;;;;;14.77;8.68;;;;;;;;;;5048308;28;20123;-59
2024/02/20 12:34:57;;;;;;;15.27;8.25;;;;;;;;;;5055381;28;20525;-56
2024/02/20 12:37:23;;;;;;;12.02;7.03;;;;;;;;;;5046780;28;20064;-59
2024/02/20 12:39:51;;;;;;;22.25;10.05;;;;;;;;;;5036235;28;20033;-58
2024/02/20 12:42:17;;;;;;;12.30;6.95;;;;;;;;;;5036291;28;20045;-57
2024/02/20 12:44:43;;;;;;;14.20;9.45;;;;;;;;;;5035415;28;20022;-59
2024/02/20 12:47:10;;;;;;;24.80;10.50;;;;;;;;;;5036163;28;20025;-56
2024/02/20 12:49:37;;;;;;;16.05;7.38;;;;;;;;;;5036400;28;20041;-57
2024/02/20 12:52:03;;;;;;;12.02;7.70;;;;;;;;;;5035836;28;20030;-58
2024/02/20 12:54:29;;;;;;;13.40;7.93;;;;;;;;;;5034909;28;20083;-56
2024/02/20 12:56:57;;;;;;;12.73;7.70;;;;;;;;;;5036222;28;20479;-56
2024/02/20 12:59:23;;;;;;;11.85;6.90;;;;;;;;;;5036282;28;20026;-57
2024/02/20 13:01:49;;;;;;;11.90;6.97;;;;;;;;;;5034549;28;20037;-56
2024/02/20 13:04:15;;;;;;;12.60;7.32;;;;;;;;;;5034758;28;20029;-57
2024/02/20 13:06:42;;;;;;;12.93;7.47;;;;;;;;;;5036322;28;20021;-56
2024/02/20 13:09:08;;;;;;;11.60;6.90;;;;;;;;;;5036068;28;20025;-60
2024/02/20 13:11:34;;;;;;;11.77;6.88;;;;;;;;;;5036259;28;20101;-62
2024/02/20 13:14:00;;;;;;;11.65;6.78;;;;;;;;;;5035419;28;20531;-59
2024/02/20 13:16:26;;;;;;;14.10;10.00;;;;;;;;;;5035870;28;20021;-55
2024/02/20 13:18:52;;;;;;;11.85;7.28;;;;;;;;;;5036094;28;20104;-56
2024/02/20 13:21:18;;;;;;;12.30;7.10;;;;;;;;;;5036031;28;20186;-54
2024/02/20 13:23:44;;;;;;;12.55;7.25;;;;;;;;;;5035526;28;20132;-58
2024/02/20 13:26:10;;;;;;;14.05;8.57;;;;;;;;;;5035999;28;20036;-58
2024/02/20 13:28:36;;;;;;;11.98;7.20;;;;;;;;;;5036277;28;20026;-57
2024/02/20 13:31:02;;;;;;;13.57;8.40;;;;;;;;;;5035551;28;20028;-58
2024/02/20 13:33:28;;;;;;;25.27;9.98;;;;;;;;;;5033596;28;20021;-57
2024/02/20 13:35:54;;;;;;;13.65;8.73;;;;;;;;;;5026368;28;20033;-58
2024/02/20 13:38:21;;;;;;;12.43;7.22;;;;;;;;;;5035639;28;20042;-55
2024/02/20 13:40:49;;;;;;;11.43;6.70;;;;;;;;;;5031516;28;20396;-60
2024/02/20 13:43:15;;;;;;;11.38;6.68;;;;;;;;;;5031963;28;20082;-60
2024/02/20 13:45:45;;;;;;;11.77;7.00;;;;;;;;;;5032446;28;20081;-58
2024/02/20 13:48:15;;;;;;;19.25;8.20;;;;;;;;;;5032387;28;20057;-58
2024/02/20 13:50:42;;;;;;;13.55;7.60;;;;;;;;;;5032737;28;20072;-56
2024/02/20 13:53:11;;;;;;;13.05;8.85;;;;;;;;;;5030964;28;20021;-57
2024/02/20 13:55:39;;;;;;;11.73;7.03;;;;;;;;;;5032530;28;20021;-59
2024/02/20 13:58:05;;;;;;;11.77;6.85;;;;;;;;;;5032413;28;20040;-59
2024/02/20 14:00:31;;;;;;;12.00;7.00;;;;;;;;;;5023569;28;20025;-58
2024/02/20 14:02:57;;;;;;;11.35;6.75;;;;;;;;;;5018406;28;20588;-57
2024/02/20 14:05:23;;;;;;;11.50;6.72;;;;;;;;;;5012767;28;20095;-58
2024/02/20 14:07:49;;;;;;;11.25;6.60;;;;;;;;;;5019630;28;20033;-59
2024/02/20 14:10:17;;;;;;;12.00;7.30;;;;;;;;;;5019618;28;20032;-57
2024/02/20 14:12:43;;;;;;;11.90;7.15;;;;;;;;;;5023948;28;20022;-59
2024/02/20 14:15:09;;;;;;;11.68;6.85;;;;;;;;;;5032485;28;20568;-58
2024/02/20 14:17:36;;;;;;;12.38;7.47;;;;;;;;;;5032392;28;20032;-59
2024/02/20 14:20:07;;;;;;;13.95;8.05;;;;;;;;;;5032313;28;20030;-58
2024/02/20 14:22:33;;;;;;;12.70;7.75;;;;;;;;;;5032078;28;20101;-59
2024/02/20 14:24:59;;;;;;;19.40;8.45;;;;;;;;;;5032158;28;20029;-59
2024/02/20 14:27:25;;;;;;;12.23;7.20;;;;;;;;;;5031725;28;20132;-58